International Virtual Aviation Organisation

Eastern Europe and Northern Asia MCD

 
UAAT 101200Z 05007MPS 9999 FEW050 20/M00 Q1016 NOSIG RMK QFE711/0948
QNH:(hPa/inHg/mmHg)1016 / 30 / 762
QFE:(hPa/inHg/mmHg)944 / 27.87 / 708
Temperature20
Dew Point-0
Visibility> 10000
Weather
Cloud CoverFEW (5000);
Transition Height1200 m./5900 ft.
Transition LevelFL70
SQUAWK